Airfield :
LOGIN :

Register | Disclaimer

   EN    FR    IT 

 










Legend :    VFR   Marginal VFR   IFR   Intensive IFR   Very Intensive IFR
Visi :
Ceiling :
>= 8 km
>= 3000ft
5 to 8 km
1000 to 3000 ft
1500m to 5 km
500 to 1000 ft
800 to 1500m
200 to 500 ft
< 800m
< 200 ft
Symbols :   Thunderstorms  Fog  Heavy snow  Heavy precipitations  Wind > 20 kt
SIGMETs :     Misc.  Thunderstorms  Icing  Turbulence  Mountain Waves  Volcanic Ashes






- Airport Elevation : 65 ft
- IATA code : PIK


EGPK - Glasgow Prestwick

CURRENT METAR :
  • 011150Z 28014KT 9999 SCT028 SCT036 10/03 Q1023

EXPIRED METARs :
  • 011120Z 28014KT 9999 FEW025 SCT032 10/03 Q1023
  • 011050Z 27009KT 9999 FEW025 SCT032 10/04 Q1023
  • 011020Z 28010KT 9999 FEW025 SCT032 09/04 Q1023
  • 010950Z 28013KT 9999 FEW025 SCT032 09/04 Q1024
  • 010920Z 27011KT 9999 FEW025 SCT032 09/03 Q1024

TAF TAF EGPK
Valid from the 01 at 12:00 until the 02 at 12:00 UTC


011058Z 0112/0212 28012KT 9999 SCT030
TEMPO 0112/0121 28015G25KT 6000 -RADZ BKN014
PROB40
TEMPO 0115/0120 3000 RADZ BKN005
PROB40
TEMPO 0203/0207 27018G28KT 6000 RA BKN012
BECMG 0207/0210 31020KT
PROB40
TEMPO 0208/0212 31022G35KT



MET'MAP, your aeronautical weather chart ! - Copyright ORBIFLY December 2007 - Disclaimer

ORBIFLY MET'MAP TEAM :

Programming & Development : Alexandra Zaïnal
Concept & original design : Baudouin d'Aumeries
Assistance for programming : Marc-Olivier Méhu
Technical & hardware support : Manuel Goepfert

Contact : metmap@orbifly.com




SOURCES & CREDITS :

   NOAA